createdAt,value
2019-03-05T00:01:49.431Z,70.86
2019-03-05T00:06:54.504Z,71.44
2019-03-05T00:11:59.500Z,71.75
2019-03-05T00:17:04.496Z,71.86
2019-03-05T00:22:10.945Z,71.66
2019-03-05T00:27:16.296Z,72.37
2019-03-05T00:32:21.308Z,71.78
2019-03-05T00:37:41.407Z,71.98
2019-03-05T00:43:10.711Z,71.82
2019-03-05T00:48:56.004Z,71.81
2019-03-05T00:54:40.843Z,71.93
2019-03-05T01:00:23.581Z,71.67
2019-03-05T01:05:52.921Z,71.05
2019-03-05T01:10:57.909Z,70.88
2019-03-05T01:16:04.678Z,70.89
2019-03-05T01:21:09.669Z,71.11
2019-03-05T01:26:14.668Z,70.80
2019-03-05T01:31:53.949Z,70.82
2019-03-05T01:37:00.728Z,70.80
2019-03-05T01:42:07.333Z,71.25
2019-03-05T01:47:12.349Z,71.36
2019-03-05T01:57:36.497Z,71.37
2019-03-05T02:02:41.523Z,71.92
2019-03-05T02:07:46.502Z,71.99
2019-03-05T02:12:51.494Z,72.60
2019-03-05T02:17:56.613Z,72.88
2019-03-05T02:23:26.507Z,73.28
2019-03-05T02:29:06.893Z,73.32
2019-03-05T02:34:24.243Z,73.17
2019-03-05T02:40:06.483Z,73.15
2019-03-05T02:45:43.681Z,73.48
2019-03-05T02:51:15.285Z,73.60
2019-03-05T02:56:58.023Z,73.56
2019-03-05T03:02:10.226Z,73.42
2019-03-05T03:07:15.328Z,73.31
2019-03-05T03:12:20.332Z,73.14
2019-03-05T03:17:25.378Z,73.92
2019-03-05T03:22:30.361Z,74.54
2019-03-05T03:27:35.314Z,74.16
2019-03-05T03:32:42.387Z,73.37
2019-03-05T03:37:47.348Z,73.39
2019-03-05T03:42:52.896Z,73.25
2019-03-05T03:47:58.769Z,73.28
2019-03-05T03:53:04.180Z,72.81
2019-03-05T03:58:09.605Z,72.38
2019-03-05T04:03:14.887Z,72.17
2019-03-05T04:08:19.932Z,71.59
2019-03-05T04:13:24.905Z,71.12
2019-03-05T04:18:30.282Z,70.77
2019-03-05T04:23:35.274Z,69.83
2019-03-05T04:28:40.245Z,69.22
2019-03-05T04:33:45.300Z,69.14
2019-03-05T04:38:50.376Z,68.25
2019-03-05T04:43:55.366Z,68.81
2019-03-05T04:49:26.651Z,69.13
2019-03-05T04:54:31.665Z,68.56
2019-03-05T04:59:36.739Z,68.69
2019-03-05T05:04:41.840Z,69.04
2019-03-05T05:09:46.844Z,69.49
2019-03-05T05:14:52.899Z,68.69
2019-03-05T05:19:57.885Z,68.67
2019-03-05T05:25:02.921Z,68.22
2019-03-05T05:30:13.498Z,68.64
2019-03-05T05:35:18.566Z,68.57
2019-03-05T05:40:31.479Z,68.14
2019-03-05T05:45:42.630Z,68.19
2019-03-05T05:50:47.835Z,67.63
2019-03-05T05:55:53.118Z,68.15
2019-03-05T06:01:00.491Z,68.29
2019-03-05T06:06:05.820Z,68.82
2019-03-05T06:11:11.166Z,69.48
2019-03-05T06:16:16.165Z,69.36
2019-03-05T06:21:21.197Z,69.69
2019-03-05T06:26:26.212Z,69.98
2019-03-05T06:31:31.328Z,69.86
2019-03-05T06:36:53.749Z,70.34
2019-03-05T06:41:58.757Z,70.43
2019-03-05T06:47:04.527Z,70.77
2019-03-05T06:52:11.700Z,70.52
2019-03-05T06:57:16.333Z,70.15
2019-03-05T07:02:22.200Z,69.22
2019-03-05T07:07:31.759Z,69.48
2019-03-05T07:12:54.378Z,69.79
2019-03-05T07:18:04.674Z,69.78
2019-03-05T07:23:18.677Z,70.54
2019-03-05T07:28:23.843Z,70.30
2019-03-05T07:33:28.832Z,69.63
2019-03-05T07:38:33.972Z,69.17
2019-03-05T07:43:39.043Z,69.11
2019-03-05T07:48:45.139Z,68.50
2019-03-05T07:53:50.312Z,69.08
2019-03-05T07:58:55.423Z,68.88
2019-03-05T08:04:00.719Z,68.61
2019-03-05T08:09:31.147Z,68.84
2019-03-05T08:15:01.331Z,68.64
2019-03-05T08:20:09.653Z,68.23
2019-03-05T08:25:15.247Z,68.57
2019-03-05T08:30:20.541Z,69.00
2019-03-05T08:35:25.599Z,68.95
2019-03-05T08:40:31.508Z,69.16
2019-03-05T08:45:36.555Z,69.12
2019-03-05T08:50:55.299Z,69.07
2019-03-05T08:56:00.767Z,70.51
2019-03-05T09:01:07.627Z,69.96
2019-03-05T09:06:12.909Z,69.80
2019-03-05T09:11:18.352Z,69.40
2019-03-05T09:16:23.663Z,67.92
2019-03-05T09:21:29.973Z,67.16
2019-03-05T09:26:36.152Z,67.09
2019-03-05T09:31:41.655Z,66.27
2019-03-05T09:36:51.086Z,65.98
2019-03-05T09:41:53.768Z,66.56
2019-03-05T09:46:58.908Z,66.65
2019-03-05T09:52:03.978Z,66.28
2019-03-05T09:57:09.055Z,65.23
2019-03-05T10:02:14.291Z,63.73
2019-03-05T10:07:19.508Z,63.30
2019-03-05T10:12:24.819Z,62.76
2019-03-05T10:17:37.584Z,60.99
2019-03-05T10:22:37.424Z,60.33
2019-03-05T10:27:42.776Z,59.63
2019-03-05T10:32:49.303Z,59.71
2019-03-05T10:37:56.175Z,59.75
2019-03-05T10:43:08.418Z,59.11
2019-03-05T10:48:09.756Z,59.88
2019-03-05T10:53:15.470Z,60.34
2019-03-05T10:58:21.225Z,60.94
2019-03-05T11:03:27.792Z,62.38
2019-03-05T11:08:32.985Z,64.51
2019-03-05T11:13:39.543Z,66.02
2019-03-05T11:18:45.158Z,66.31
2019-03-05T11:23:50.247Z,65.81
2019-03-05T11:28:57.041Z,66.30
2019-03-05T11:34:02.234Z,67.48
2019-03-05T11:39:07.819Z,67.01
2019-03-05T11:44:14.726Z,67.32
2019-03-05T11:49:20.263Z,68.57
2019-03-05T11:54:25.385Z,69.80
2019-03-05T11:59:30.664Z,70.53
2019-03-05T12:04:35.816Z,71.11
2019-03-05T12:09:41.619Z,71.23
2019-03-05T12:14:46.987Z,71.46
2019-03-05T12:19:52.166Z,71.59
2019-03-05T12:24:57.701Z,71.13
2019-03-05T12:30:04.655Z,72.22
2019-03-05T12:35:11.821Z,72.14
2019-03-05T12:40:17.382Z,72.21
2019-03-05T12:45:22.935Z,71.77
2019-03-05T12:50:28.486Z,71.39
2019-03-05T12:55:33.897Z,71.51
2019-03-05T13:00:38.946Z,71.46
2019-03-05T13:05:44.490Z,70.20
2019-03-05T13:10:49.885Z,70.01
2019-03-05T13:15:56.494Z,71.12
2019-03-05T13:21:03.506Z,66.32
2019-03-05T13:26:09.432Z,59.68
2019-03-05T13:31:14.979Z,58.29
2019-03-05T13:36:20.597Z,58.76
2019-03-05T13:41:25.927Z,58.58
2019-03-05T13:46:31.216Z,61.46
2019-03-05T13:52:12.970Z,60.88
2019-03-05T13:57:51.409Z,57.98
2019-03-05T14:03:03.560Z,55.57
2019-03-05T14:08:53.602Z,55.31
2019-03-05T14:13:58.703Z,54.43
2019-03-05T14:19:03.993Z,53.19
2019-03-05T14:24:09.222Z,52.84
2019-03-05T14:29:14.568Z,54.55
2019-03-05T14:34:19.662Z,55.21
2019-03-05T14:39:32.008Z,55.27
2019-03-05T14:44:40.109Z,57.43
2019-03-05T14:49:44.766Z,59.66
2019-03-05T14:54:49.904Z,60.61
2019-03-05T14:59:55.085Z,67.22
2019-03-05T15:05:00.439Z,73.75
2019-03-05T15:10:08.661Z,75.98
2019-03-05T15:15:26.077Z,76.93
2019-03-05T15:20:33.270Z,76.28
2019-03-05T15:25:38.943Z,75.30
2019-03-05T15:30:44.087Z,73.63
2019-03-05T15:35:49.471Z,73.09
2019-03-05T15:40:54.886Z,72.47
2019-03-05T15:46:00.429Z,72.47
2019-03-05T15:51:06.264Z,71.46
2019-03-05T15:56:12.063Z,65.92
2019-03-05T16:01:22.362Z,63.79
2019-03-05T16:06:24.814Z,63.31
2019-03-05T16:11:33.633Z,62.82
2019-03-05T16:16:36.796Z,63.20
2019-03-05T16:21:44.132Z,63.47
2019-03-05T16:26:51.172Z,63.57
2019-03-05T16:32:23.100Z,64.08
2019-03-05T16:37:44.654Z,64.32
2019-03-05T16:43:07.396Z,64.91
2019-03-05T16:48:30.057Z,65.27
2019-03-05T16:53:53.157Z,65.79
2019-03-05T16:59:20.816Z,66.64
2019-03-05T17:04:54.410Z,66.41
2019-03-05T17:10:36.867Z,66.04
2019-03-05T17:15:42.199Z,66.00
2019-03-05T17:20:47.485Z,65.69
2019-03-05T17:25:53.798Z,65.53
2019-03-05T17:31:01.622Z,65.61
2019-03-05T17:36:08.827Z,65.54
2019-03-05T17:41:14.814Z,64.17
2019-03-05T17:46:20.527Z,64.23
2019-03-05T17:51:26.678Z,63.69
2019-03-05T17:56:32.171Z,64.01
2019-03-05T18:01:37.600Z,64.74
2019-03-05T18:06:43.218Z,65.12
2019-03-05T18:11:48.556Z,64.95
2019-03-05T18:16:53.874Z,65.29
2019-03-05T18:22:01.689Z,64.89
2019-03-05T18:27:08.232Z,64.73
2019-03-05T18:32:13.788Z,64.63
2019-03-05T18:37:19.360Z,64.54
2019-03-05T18:42:24.679Z,64.58
2019-03-05T18:47:30.091Z,65.08
2019-03-05T18:52:35.436Z,64.73
2019-03-05T18:57:40.822Z,65.51
2019-03-05T19:02:46.424Z,66.09
2019-03-05T19:07:51.610Z,66.07
2019-03-05T19:12:57.602Z,66.83
2019-03-05T19:18:03.246Z,66.53
2019-03-05T19:23:08.398Z,67.04
2019-03-05T19:28:13.630Z,67.30
2019-03-05T19:33:20.307Z,67.27
2019-03-05T19:38:25.658Z,67.46
2019-03-05T19:43:30.915Z,67.80
2019-03-05T19:48:36.290Z,69.15
2019-03-05T19:53:41.570Z,70.19
2019-03-05T19:58:47.432Z,72.07
2019-03-05T20:03:53.141Z,73.25
2019-03-05T20:08:58.516Z,75.01
2019-03-05T20:14:03.712Z,76.56
2019-03-05T20:19:08.734Z,77.31
2019-03-05T20:24:14.777Z,78.45
2019-03-05T20:29:20.990Z,79.02
2019-03-05T20:34:26.254Z,79.38
2019-03-05T20:39:32.138Z,79.82
2019-03-05T20:44:37.558Z,80.40
2019-03-05T20:49:42.962Z,80.54
2019-03-05T20:54:48.149Z,81.06
2019-03-05T20:59:54.274Z,81.77
2019-03-05T21:04:59.435Z,81.94
2019-03-05T21:10:05.146Z,82.16
2019-03-05T21:15:11.476Z,82.39
2019-03-05T21:20:17.286Z,82.54
2019-03-05T21:25:22.298Z,82.91
2019-03-05T21:30:27.507Z,83.23
2019-03-05T21:35:32.721Z,83.35
2019-03-05T21:40:37.841Z,83.76
2019-03-05T21:45:44.497Z,83.93
2019-03-05T21:50:54.902Z,83.78
2019-03-05T21:55:59.988Z,83.83
2019-03-05T22:01:05.174Z,84.24
2019-03-05T22:06:10.221Z,84.57
2019-03-05T22:11:15.250Z,84.52
2019-03-05T22:16:20.312Z,84.50
2019-03-05T22:21:25.740Z,84.77
2019-03-05T22:26:31.802Z,85.17
2019-03-05T22:31:36.934Z,85.23
2019-03-05T22:36:42.227Z,85.71
2019-03-05T22:41:47.240Z,85.78
2019-03-05T22:46:52.574Z,85.26
2019-03-05T22:51:57.540Z,85.82
2019-03-05T22:57:02.570Z,86.27
2019-03-05T23:02:08.054Z,86.37
2019-03-05T23:07:14.488Z,86.48
2019-03-05T23:12:19.647Z,87.01
2019-03-05T23:17:24.782Z,87.79
2019-03-05T23:22:30.911Z,87.55
2019-03-05T23:27:36.344Z,87.81
2019-03-05T23:32:41.324Z,87.54
2019-03-05T23:37:47.548Z,87.19
2019-03-05T23:42:52.576Z,87.26
2019-03-05T23:47:57.876Z,86.61
2019-03-05T23:53:02.932Z,85.98
2019-03-05T23:58:08.119Z,85.69
